Shizuoka, Japan
Current Conditions -  °F | °C
As of 8:00 PM on Tuesday 27 Jan 2015 (Local Time) from RJNS Reporting Station
Broken Clouds Broken Clouds  
Wind Chill: 50°   Ceiling: Unl
Heat Index: 50°   Visibility: 6mi
Dew Point: 37°   Wind: 15mph
Humidity: 62%   Direction: 260°W
Pressure: 29.8"   Gusts: NA
Location:  34.98°N, 138.39°E
Report Text: RJNS 271100Z 26013KT 9999 FEW020 BKN/// 10/03 Q1009
Loading
Personal Weather Stations






























Interactive Weather Map New forecast layout! Learn more

10-Day Weather Forecast

Advertisements
Track Severe Weather on mobile